Time;durP1;ratioP1;P1;durP2;ratioP2;P2;SDS_P1;SDS_P2;PMS_P1;PMS_P2;Temp;Humidity;BMP_temperature;BMP_pressure;BME280_temperature;BME280_humidity;BME280_pressure;Samples;Min_cycle;Max_cycle;Signal;HPM_P1;HPM_P2
2022/08/13 00:01:13;;;;;;;4.00;2.47;;;19.50;99.90;;;;;;5082943;28;20197;-48
2022/08/13 00:03:42;;;;;;;2.57;2.37;;;19.50;99.90;;;;;;5079464;28;20227;-48
2022/08/13 00:06:11;;;;;;;2.23;2.03;;;19.50;99.90;;;;;;5062979;28;20286;-45
2022/08/13 00:08:39;;;;;;;4.63;2.30;;;19.40;99.90;;;;;;5062291;28;20269;-49
2022/08/13 00:11:07;;;;;;;3.90;2.50;;;19.40;99.90;;;;;;5065712;28;20348;-45
2022/08/13 00:13:35;;;;;;;3.57;2.20;;;19.30;99.90;;;;;;5061175;28;20199;-52
2022/08/13 00:16:02;;;;;;;2.20;2.10;;;19.30;99.90;;;;;;5061343;28;20195;-46
2022/08/13 00:18:30;;;;;;;2.67;2.47;;;19.30;99.90;;;;;;5062973;28;20226;-48
2022/08/13 00:20:59;;;;;;;3.80;2.27;;;19.30;99.90;;;;;;5061725;28;20354;-46
2022/08/13 00:23:29;;;;;;;2.73;2.10;;;19.30;99.90;;;;;;5061262;28;20230;-50
2022/08/13 00:25:58;;;;;;;2.20;2.00;;;19.20;99.90;;;;;;5071077;28;20210;-47
2022/08/13 00:28:28;;;;;;;4.50;2.13;;;19.20;99.90;;;;;;5067156;28;20218;-47
2022/08/13 00:30:59;;;;;;;3.20;2.13;;;19.20;99.90;;;;;;5063663;28;20303;-48
2022/08/13 00:33:26;;;;;;;3.17;2.30;;;19.20;99.90;;;;;;5064728;28;20301;-46
2022/08/13 00:35:54;;;;;;;4.27;2.07;;;19.10;99.90;;;;;;5063383;28;20214;-50
2022/08/13 00:38:23;;;;;;;3.07;2.60;;;19.10;99.90;;;;;;5058829;28;20210;-45
2022/08/13 00:40:52;;;;;;;5.20;2.33;;;19.10;99.90;;;;;;5068741;28;20191;-46
2022/08/13 00:43:19;;;;;;;2.23;2.13;;;19.00;99.90;;;;;;5065914;28;20202;-46
2022/08/13 00:45:47;;;;;;;3.10;2.33;;;19.00;99.90;;;;;;5063036;28;20212;-47
2022/08/13 00:51:01;;;;;;;3.23;2.07;;;19.00;99.90;;;;;;5064102;28;20210;-46
2022/08/13 00:53:30;;;;;;;6.20;2.30;;;18.90;99.90;;;;;;5057655;28;20210;-48
2022/08/13 00:55:59;;;;;;;3.53;2.40;;;18.90;99.90;;;;;;5069590;28;20183;-46
2022/08/13 00:58:27;;;;;;;4.13;2.17;;;18.90;99.90;;;;;;5066640;28;20238;-48
2022/08/13 01:00:57;;;;;;;2.63;2.10;;;18.90;99.90;;;;;;5063012;28;20192;-46
2022/08/13 01:03:29;;;;;;;3.50;2.47;;;18.90;99.90;;;;;;5065331;28;20267;-46
2022/08/13 01:05:59;;;;;;;2.23;2.13;;;18.90;99.90;;;;;;5063141;28;20252;-46
2022/08/13 01:08:31;;;;;;;2.67;2.43;;;18.90;99.90;;;;;;5069159;28;20238;-46
2022/08/13 01:11:02;;;;;;;2.50;2.23;;;18.80;99.90;;;;;;5070950;28;20220;-48
2022/08/13 01:13:33;;;;;;;2.83;2.23;;;18.80;99.90;;;;;;5064562;28;20575;-50
2022/08/13 01:16:00;;;;;;;2.50;2.33;;;18.70;99.90;;;;;;5065673;28;20255;-49
2022/08/13 01:18:28;;;;;;;5.47;2.27;;;18.70;99.90;;;;;;5069084;28;20235;-45
2022/08/13 01:20:59;;;;;;;2.37;2.13;;;18.70;99.90;;;;;;5062765;28;20195;-46
2022/08/13 01:23:29;;;;;;;4.03;2.30;;;18.60;99.90;;;;;;5065241;28;20202;-48
2022/08/13 01:25:57;;;;;;;3.67;2.17;;;18.60;99.90;;;;;;5063933;28;20198;-50
2022/08/13 01:28:27;;;;;;;2.27;2.10;;;18.60;99.90;;;;;;5068551;28;20222;-46
2022/08/13 01:30:56;;;;;;;2.07;1.80;;;18.50;99.90;;;;;;5062417;28;20221;-48
2022/08/13 01:33:24;;;;;;;2.50;2.30;;;18.40;99.90;;;;;;5064808;28;20198;-46
2022/08/13 01:35:53;;;;;;;3.80;2.50;;;18.40;99.90;;;;;;5062121;28;20197;-48
2022/08/13 01:38:21;;;;;;;2.70;2.50;;;18.30;99.90;;;;;;5080681;28;20612;-48
2022/08/13 01:40:50;;;;;;;2.60;1.90;;;18.30;99.90;;;;;;5056001;28;20278;-46
2022/08/13 01:43:19;;;;;;;2.77;2.10;;;18.20;99.90;;;;;;5070726;28;20202;-46
2022/08/13 01:45:46;;;;;;;4.23;2.50;;;18.30;99.90;;;;;;5062451;28;20210;-48
2022/08/13 01:50:58;;;;;;;4.20;2.57;;;18.30;99.90;;;;;;5075941;28;20213;-49
2022/08/13 01:53:24;;;;;;;2.37;2.27;;;18.30;99.90;;;;;;5084262;28;20209;-46
2022/08/13 01:55:55;;;;;;;3.37;2.40;;;18.30;99.90;;;;;;5064340;28;20201;-46
2022/08/13 01:58:29;;;;;;;2.20;2.10;;;18.20;99.90;;;;;;5073841;28;20199;-46
2022/08/13 02:00:59;;;;;;;2.23;2.13;;;18.20;99.90;;;;;;5062107;28;20191;-47
2022/08/13 02:03:27;;;;;;;3.30;2.20;;;18.20;99.90;;;;;;5064474;28;20198;-46
2022/08/13 02:05:56;;;;;;;2.70;2.50;;;18.10;99.90;;;;;;5061717;28;20191;-48
2022/08/13 02:08:26;;;;;;;3.10;2.40;;;18.10;99.90;;;;;;5073871;28;20202;-46
2022/08/13 02:10:56;;;;;;;2.30;2.10;;;18.10;99.90;;;;;;5056022;28;21778;-47
2022/08/13 02:13:28;;;;;;;2.83;2.33;;;18.10;99.90;;;;;;5071433;28;20701;-51
2022/08/13 02:15:55;;;;;;;3.83;2.23;;;18.10;99.90;;;;;;5064632;28;20190;-46
2022/08/13 02:18:24;;;;;;;7.03;2.80;;;18.10;99.90;;;;;;5065128;28;20602;-49
2022/08/13 02:20:53;;;;;;;3.03;2.30;;;18.10;99.90;;;;;;5061020;28;20214;-51
2022/08/13 02:23:24;;;;;;;4.80;2.40;;;18.00;99.90;;;;;;5064154;28;20566;-48
2022/08/13 02:25:51;;;;;;;4.40;2.40;;;17.80;99.90;;;;;;5049744;28;20210;-48
2022/08/13 02:28:21;;;;;;;2.40;2.20;;;17.80;99.90;;;;;;5074604;28;20207;-46
2022/08/13 02:30:49;;;;;;;2.80;2.50;;;17.70;99.90;;;;;;5065428;28;20241;-45
2022/08/13 02:33:16;;;;;;;3.27;2.40;;;17.70;99.90;;;;;;5063699;28;20199;-49
2022/08/13 02:35:43;;;;;;;5.17;2.50;;;17.60;99.90;;;;;;5061878;28;20199;-46
2022/08/13 02:38:11;;;;;;;3.47;2.40;;;17.60;99.90;;;;;;5076060;28;20195;-46
2022/08/13 02:43:28;;;;;;;2.27;2.07;;;17.60;99.90;;;;;;5074144;28;20202;-48
2022/08/13 02:45:56;;;;;;;3.60;2.17;;;17.60;99.90;;;;;;5060571;28;20197;-49
2022/08/13 02:48:25;;;;;;;2.30;2.20;;;17.60;99.90;;;;;;5064607;28;20210;-49
2022/08/13 02:50:52;;;;;;;3.87;2.30;;;17.60;99.90;;;;;;5060676;28;20883;-47
2022/08/13 02:53:19;;;;;;;3.80;2.10;;;17.60;99.90;;;;;;5063411;28;20202;-50
2022/08/13 02:55:48;;;;;;;2.40;2.17;;;17.60;99.90;;;;;;5049456;28;20605;-50
2022/08/13 02:58:16;;;;;;;2.13;1.93;;;17.50;99.90;;;;;;5068948;28;20668;-48
2022/08/13 03:00:49;;;;;;;3.67;2.60;;;17.50;99.90;;;;;;5066630;28;20198;-48
2022/08/13 03:03:18;;;;;;;4.53;2.23;;;17.40;99.90;;;;;;5063110;28;20195;-45
2022/08/13 03:05:45;;;;;;;4.27;2.57;;;17.40;99.90;;;;;;5060819;28;20283;-47
2022/08/13 03:08:13;;;;;;;4.07;2.50;;;17.30;99.90;;;;;;5071870;28;20201;-45
2022/08/13 03:10:41;;;;;;;2.00;1.90;;;17.30;99.90;;;;;;5071327;28;20198;-48
2022/08/13 03:13:16;;;;;;;3.33;2.40;;;17.20;99.90;;;;;;5057915;28;20674;-46
2022/08/13 03:15:45;;;;;;;2.60;2.40;;;17.20;99.90;;;;;;5067028;28;20730;-50
2022/08/13 03:18:13;;;;;;;2.37;2.20;;;17.20;99.90;;;;;;5064019;28;20207;-48
2022/08/13 03:20:41;;;;;;;2.73;2.53;;;17.20;99.90;;;;;;5058675;28;20240;-52
2022/08/13 03:23:08;;;;;;;2.87;2.67;;;17.20;99.90;;;;;;5070265;28;20760;-50
2022/08/13 03:25:36;;;;;;;2.60;2.10;;;17.20;99.90;;;;;;5063851;28;20202;-48
2022/08/13 03:28:06;;;;;;;2.80;2.33;;;17.20;99.90;;;;;;5050153;28;20295;-49
2022/08/13 03:30:34;;;;;;;3.07;2.40;;;17.10;99.90;;;;;;5067242;28;20210;-47
2022/08/13 03:33:07;;;;;;;2.70;2.30;;;17.10;99.90;;;;;;5067504;28;20271;-48
2022/08/13 03:35:35;;;;;;;3.40;2.30;;;17.10;99.90;;;;;;5062126;28;20206;-46
2022/08/13 03:38:03;;;;;;;3.80;2.47;;;17.10;99.90;;;;;;5070161;28;20190;-46
2022/08/13 03:41:00;;;;;;;4.33;2.70;;;17.00;99.90;;;;;;5069414;28;20218;-48
2022/08/13 03:43:18;;;;;;;2.60;2.47;;;16.90;99.90;;;;;;5077111;28;20214;-46
2022/08/13 03:45:45;;;;;;;2.60;2.40;;;16.90;99.90;;;;;;5061249;28;20198;-47
2022/08/13 03:48:15;;;;;;;7.00;2.80;;;16.90;99.90;;;;;;5065590;28;20195;-45
2022/08/13 03:50:42;;;;;;;5.33;3.00;;;16.80;99.90;;;;;;5061093;28;20252;-46
2022/08/13 03:53:10;;;;;;;3.20;3.00;;;16.80;99.90;;;;;;5062238;28;20737;-50
2022/08/13 03:55:39;;;;;;;3.10;2.60;;;16.80;99.90;;;;;;5061200;28;20194;-51
2022/08/13 03:58:07;;;;;;;2.53;2.33;;;16.80;99.90;;;;;;5062237;28;20319;-47
2022/08/13 04:00:36;;;;;;;3.53;2.27;;;16.80;99.90;;;;;;5045092;28;23108;-46
2022/08/13 04:03:19;;;;;;;7.50;2.70;;;16.80;99.90;;;;;;5068103;28;20198;-46
2022/08/13 04:05:46;;;;;;;2.77;2.57;;;16.80;99.90;;;;;;5061923;28;20186;-47
2022/08/13 04:08:13;;;;;;;3.40;2.57;;;16.70;99.90;;;;;;5066650;28;20210;-48
2022/08/13 04:10:40;;;;;;;3.37;2.57;;;16.70;99.90;;;;;;5067327;28;20197;-45
2022/08/13 04:13:12;;;;;;;3.03;2.60;;;16.80;99.90;;;;;;5068260;28;20226;-46
2022/08/13 04:15:41;;;;;;;2.90;2.63;;;16.70;99.90;;;;;;5049658;28;20237;-47
2022/08/13 04:18:08;;;;;;;3.53;2.60;;;16.70;99.90;;;;;;5074141;28;20282;-50
2022/08/13 04:20:37;;;;;;;2.93;2.60;;;16.70;99.90;;;;;;5068094;28;20283;-53
2022/08/13 04:23:08;;;;;;;4.17;2.70;;;16.70;99.90;;;;;;5069335;28;20294;-47
2022/08/13 04:25:35;;;;;;;4.00;2.80;;;16.70;99.90;;;;;;5058815;28;20808;-46
2022/08/13 04:28:02;;;;;;;5.13;2.50;;;16.60;99.90;;;;;;5063568;28;20334;-49
2022/08/13 04:30:32;;;;;;;4.60;2.73;;;16.60;99.90;;;;;;5047487;28;20225;-50
2022/08/13 04:32:59;;;;;;;7.40;2.43;;;16.60;99.90;;;;;;5065273;28;20244;-45
2022/08/13 04:35:26;;;;;;;2.90;2.23;;;16.60;99.90;;;;;;5065587;28;20632;-50
2022/08/13 04:37:57;;;;;;;3.10;2.70;;;16.60;99.90;;;;;;5069272;28;20203;-47
2022/08/13 04:40:24;;;;;;;6.00;2.87;;;16.60;99.90;;;;;;5069566;28;20218;-51
2022/08/13 04:42:53;;;;;;;3.20;2.60;;;16.70;99.90;;;;;;5061724;28;20651;-47
2022/08/13 04:45:20;;;;;;;4.17;2.40;;;16.70;99.90;;;;;;5061585;28;20241;-52
2022/08/13 04:47:47;;;;;;;4.67;2.67;;;16.70;99.90;;;;;;5062652;28;20190;-49
2022/08/13 04:50:15;;;;;;;2.90;2.70;;;16.70;99.90;;;;;;5068881;28;20305;-51
2022/08/13 04:52:44;;;;;;;3.63;2.57;;;16.60;99.90;;;;;;5071040;28;20821;-47
2022/08/13 04:55:12;;;;;;;2.80;2.60;;;16.50;99.90;;;;;;5061587;28;20195;-48
2022/08/13 04:57:41;;;;;;;3.30;3.00;;;16.50;99.90;;;;;;5060611;28;20290;-46
2022/08/13 05:00:09;;;;;;;2.60;2.40;;;16.50;99.90;;;;;;5069497;28;20304;-46
2022/08/13 05:02:39;;;;;;;2.90;2.67;;;16.50;99.90;;;;;;5060887;28;20191;-46
2022/08/13 05:05:10;;;;;;;3.33;2.77;;;16.60;99.90;;;;;;5063005;28;20202;-47
2022/08/13 05:07:37;;;;;;;4.23;2.80;;;16.70;99.90;;;;;;5069025;28;20278;-48
2022/08/13 05:10:05;;;;;;;3.20;2.90;;;16.70;99.90;;;;;;5078958;28;20213;-47
2022/08/13 05:12:35;;;;;;;4.37;2.93;;;16.70;99.90;;;;;;5058198;28;20218;-47
2022/08/13 05:15:02;;;;;;;3.83;2.53;;;16.80;99.90;;;;;;5064744;28;20210;-46
2022/08/13 05:17:30;;;;;;;4.93;3.30;;;16.80;99.90;;;;;;5051739;28;20288;-48
2022/08/13 05:19:57;;;;;;;6.10;2.77;;;16.90;99.90;;;;;;5077200;28;20706;-46
2022/08/13 05:22:24;;;;;;;6.03;2.73;;;16.90;99.90;;;;;;5067183;28;20281;-48
2022/08/13 05:24:51;;;;;;;5.17;2.97;;;16.90;99.90;;;;;;5063672;28;20233;-48
2022/08/13 05:27:19;;;;;;;4.77;3.10;;;17.00;99.90;;;;;;5063722;28;20202;-52
2022/08/13 05:29:47;;;;;;;4.27;2.77;;;17.00;99.90;;;;;;5064001;28;20339;-51
2022/08/13 05:32:15;;;;;;;2.80;2.60;;;17.10;99.90;;;;;;5053853;28;20243;-49
2022/08/13 05:34:41;;;;;;;2.73;2.50;;;17.10;99.90;;;;;;5067364;28;20205;-48
2022/08/13 05:37:15;;;;;;;3.53;2.70;;;17.20;99.90;;;;;;5065926;28;20205;-50
2022/08/13 05:39:43;;;;;;;3.53;2.83;;;17.20;99.90;;;;;;5066053;28;20230;-48
2022/08/13 05:42:10;;;;;;;3.50;2.67;;;17.20;99.90;;;;;;5056824;28;20199;-51
2022/08/13 05:44:36;;;;;;;6.47;2.97;;;17.30;99.90;;;;;;5056181;28;20480;-48
2022/08/13 05:47:05;;;;;;;3.10;2.67;;;17.40;99.90;;;;;;5063802;28;20213;-49
2022/08/13 05:49:33;;;;;;;3.23;2.93;;;17.40;99.90;;;;;;5049731;28;20222;-50
2022/08/13 05:52:01;;;;;;;4.37;3.23;;;17.50;99.90;;;;;;5068650;28;20313;-51
2022/08/13 05:54:30;;;;;;;6.43;3.13;;;17.60;99.90;;;;;;5061885;28;20209;-50
2022/08/13 05:56:57;;;;;;;2.83;2.63;;;17.70;99.90;;;;;;5068836;28;20221;-50
2022/08/13 06:04:57;;;;;;;3.07;2.77;;;18.00;99.90;;;;;;5068133;28;20217;-50
2022/08/13 06:07:24;;;;;;;4.33;2.80;;;18.00;99.90;;;;;;5070946;28;20659;-49
2022/08/13 06:09:51;;;;;;;2.93;2.60;;;18.10;99.90;;;;;;5065690;28;20685;-50
2022/08/13 06:12:17;;;;;;;3.93;2.90;;;18.20;99.90;;;;;;5060243;28;20234;-60
2022/08/13 06:14:45;;;;;;;4.03;2.70;;;18.30;99.90;;;;;;5066548;28;20289;-60
2022/08/13 06:17:14;;;;;;;2.70;2.50;;;18.40;99.90;;;;;;5064734;28;20714;-60
2022/08/13 06:19:44;;;;;;;2.70;2.50;;;18.50;99.90;;;;;;5057068;28;20489;-60
2022/08/13 06:22:12;;;;;;;5.60;2.50;;;18.60;99.90;;;;;;5065069;28;20282;-60
2022/08/13 06:24:39;;;;;;;4.10;2.17;;;18.80;99.90;;;;;;5066073;28;20206;-61
2022/08/13 06:27:07;;;;;;;7.93;2.37;;;18.90;99.90;;;;;;5082245;28;20202;-61
2022/08/13 06:29:35;;;;;;;3.03;2.60;;;19.00;99.90;;;;;;5061579;28;20221;-61
2022/08/13 06:32:04;;;;;;;3.97;2.33;;;19.10;99.90;;;;;;5066888;28;20218;-61
2022/08/13 06:34:35;;;;;;;3.20;2.67;;;19.20;99.90;;;;;;5043494;28;20221;-58
2022/08/13 06:37:03;;;;;;;2.70;2.50;;;19.40;99.90;;;;;;5074137;28;20282;-45
2022/08/13 06:39:30;;;;;;;2.40;2.20;;;19.50;99.90;;;;;;5067353;28;20214;-47
2022/08/13 06:42:02;;;;;;;4.17;1.93;;;19.60;99.90;;;;;;5073177;28;20205;-49
2022/08/13 06:44:31;;;;;;;5.27;2.23;;;19.80;99.90;;;;;;5061335;28;20206;-47
2022/08/13 06:47:00;;;;;;;2.77;2.27;;;19.90;99.90;;;;;;5065388;28;20222;-46
2022/08/13 06:49:27;;;;;;;2.53;2.33;;;20.00;99.90;;;;;;5053795;28;20662;-48
2022/08/13 06:51:57;;;;;;;5.10;2.50;;;20.20;99.90;;;;;;5065943;28;20207;-48
2022/08/13 06:54:24;;;;;;;3.60;2.27;;;20.40;99.90;;;;;;5062574;28;20206;-47
2022/08/13 06:56:53;;;;;;;4.33;2.10;;;20.60;99.90;;;;;;5074836;28;20206;-44
2022/08/13 06:59:20;;;;;;;4.40;2.40;;;20.80;99.90;;;;;;5063112;28;20552;-45
2022/08/13 07:01:48;;;;;;;2.23;2.03;;;20.90;99.90;;;;;;5067126;28;20484;-46
2022/08/13 07:04:19;;;;;;;4.80;2.80;;;21.00;99.90;;;;;;5073652;28;20564;-49
2022/08/13 07:06:48;;;;;;;3.30;2.23;;;21.10;99.90;;;;;;5060026;28;20190;-45
2022/08/13 07:09:18;;;;;;;2.67;1.97;;;21.20;99.90;;;;;;5076892;28;20218;-47
2022/08/13 07:11:45;;;;;;;1.93;1.83;;;21.30;99.90;;;;;;5069961;28;20295;-45
2022/08/13 07:14:14;;;;;;;6.93;1.80;;;21.40;99.90;;;;;;5063132;28;20230;-49
2022/08/13 07:16:44;;;;;;;3.17;2.10;;;21.50;99.90;;;;;;5061142;28;20911;-45
2022/08/13 07:19:12;;;;;;;1.80;1.70;;;21.70;99.90;;;;;;5075488;28;20316;-47
2022/08/13 07:21:40;;;;;;;3.60;2.00;;;21.80;99.90;;;;;;5053213;28;20304;-46
2022/08/13 07:24:08;;;;;;;2.10;2.00;;;21.90;99.90;;;;;;5069336;28;20286;-47
2022/08/13 07:26:37;;;;;;;2.57;2.20;;;22.00;99.90;;;;;;5063251;28;20412;-52
2022/08/13 07:29:05;;;;;;;3.40;2.03;;;22.10;99.90;;;;;;5062482;28;20348;-47
2022/08/13 07:31:34;;;;;;;2.77;2.53;;;22.20;99.90;;;;;;5058817;28;20929;-46
2022/08/13 07:34:06;;;;;;;4.50;2.20;;;22.30;99.90;;;;;;5061787;28;20224;-46
2022/08/13 07:36:37;;;;;;;2.67;2.17;;;22.40;99.90;;;;;;5070034;28;20194;-46
2022/08/13 07:39:08;;;;;;;3.87;2.17;;;22.50;99.90;;;;;;5060459;28;20651;-45
2022/08/13 07:41:41;;;;;;;3.63;2.00;;;22.70;99.90;;;;;;5063285;28;20331;-45
2022/08/13 07:44:12;;;;;;;2.20;2.10;;;22.70;99.90;;;;;;5062662;28;20214;-49
2022/08/13 07:46:42;;;;;;;2.63;2.23;;;22.90;99.90;;;;;;5067930;28;20191;-46
2022/08/13 07:49:11;;;;;;;4.43;2.30;;;23.00;99.40;;;;;;5064035;28;20219;-47
2022/08/13 07:51:41;;;;;;;4.10;2.00;;;23.20;98.60;;;;;;5063779;28;20198;-45
2022/08/13 07:54:08;;;;;;;3.40;2.40;;;23.40;98.00;;;;;;5056748;28;20702;-46
2022/08/13 07:56:35;;;;;;;4.73;1.80;;;23.60;97.30;;;;;;5068813;28;20196;-50
2022/08/13 07:59:06;;;;;;;2.23;1.67;;;23.70;96.70;;;;;;5069954;28;20252;-46
2022/08/13 08:01:36;;;;;;;4.90;2.30;;;23.80;96.10;;;;;;5058344;28;20256;-46
2022/08/13 08:04:04;;;;;;;3.37;1.97;;;24.00;95.30;;;;;;5057773;28;20232;-49
2022/08/13 08:06:32;;;;;;;3.37;1.70;;;24.20;94.80;;;;;;5062233;28;20230;-47
2022/08/13 08:08:59;;;;;;;1.97;1.70;;;24.40;94.10;;;;;;5074382;28;20297;-47
2022/08/13 08:14:12;;;;;;;2.03;1.88;;;24.70;93.30;;;;;;5061872;28;20221;-47
2022/08/13 08:16:44;;;;;;;2.40;2.00;;;24.80;92.60;;;;;;5065602;28;20663;-45
2022/08/13 08:19:14;;;;;;;2.20;1.77;;;25.00;91.70;;;;;;5069726;28;20218;-49
2022/08/13 08:21:41;;;;;;;5.95;1.65;;;25.10;91.10;;;;;;5062592;28;20202;-46
2022/08/13 08:24:09;;;;;;;4.68;1.85;;;25.30;91.10;;;;;;5067865;28;20209;-48
2022/08/13 08:26:37;;;;;;;4.63;1.98;;;25.40;90.10;;;;;;5051372;28;20212;-47
2022/08/13 08:29:10;;;;;;;6.55;1.73;;;25.60;89.00;;;;;;5075733;28;20347;-49
2022/08/13 08:31:41;;;;;;;2.08;1.55;;;25.90;86.70;;;;;;5065788;28;20202;-45
2022/08/13 08:34:08;;;;;;;3.67;1.50;;;26.10;84.90;;;;;;5064033;28;20426;-49
2022/08/13 08:36:39;;;;;;;2.33;1.80;;;26.10;83.80;;;;;;5067318;28;20221;-45
2022/08/13 08:44:39;;;;;;;4.40;1.70;;;26.40;81.30;;;;;;5070050;28;20239;-45
2022/08/13 08:47:08;;;;;;;3.88;1.60;;;26.40;79.50;;;;;;5070353;28;20679;-47
2022/08/13 08:49:36;;;;;;;1.58;1.50;;;26.50;79.30;;;;;;5067922;28;20221;-46
2022/08/13 08:52:04;;;;;;;3.78;1.55;;;26.60;78.80;;;;;;5066060;28;20214;-48
2022/08/13 08:54:31;;;;;;;1.45;1.35;;;26.60;78.60;;;;;;5060193;28;20221;-45
2022/08/13 08:56:58;;;;;;;2.20;2.00;;;26.80;77.20;;;;;;5061555;28;20221;-49
2022/08/13 08:59:27;;;;;;;1.50;1.40;;;27.00;75.60;;;;;;5067362;28;20228;-45
2022/08/13 09:01:56;;;;;;;2.13;1.60;;;27.20;73.50;;;;;;5074414;28;20619;-48
2022/08/13 09:04:28;;;;;;;1.73;1.63;;;27.30;73.10;;;;;;5064773;28;20646;-47
2022/08/13 09:06:57;;;;;;;3.63;1.70;;;27.40;72.40;;;;;;5069665;28;20286;-48
2022/08/13 09:09:26;;;;;;;3.50;1.60;;;27.40;72.10;;;;;;5070041;28;20234;-47
2022/08/13 09:11:55;;;;;;;1.70;1.60;;;27.50;70.70;;;;;;5060897;28;22526;-45
2022/08/13 09:14:25;;;;;;;2.40;1.67;;;27.60;70.60;;;;;;5074229;28;20264;-46
2022/08/13 09:16:54;;;;;;;1.70;1.60;;;27.60;70.20;;;;;;5066800;28;20190;-48
2022/08/13 09:19:23;;;;;;;1.55;1.45;;;27.70;69.70;;;;;;5068647;28;20621;-46
2022/08/13 09:21:51;;;;;;;2.33;1.52;;;27.80;67.30;;;;;;5061458;28;20198;-49
2022/08/13 09:24:24;;;;;;;2.90;1.70;;;27.80;66.90;;;;;;5066781;28;20245;-45
2022/08/13 09:26:52;;;;;;;1.95;1.85;;;27.90;66.30;;;;;;5055403;28;20208;-46
2022/08/13 09:29:22;;;;;;;3.70;1.67;;;27.90;65.90;;;;;;5074949;28;20218;-45
2022/08/13 09:31:54;;;;;;;1.60;1.50;;;27.90;65.80;;;;;;5065067;28;20191;-46
2022/08/13 09:34:21;;;;;;;1.98;1.48;;;27.90;65.80;;;;;;5065191;28;20612;-45
2022/08/13 09:36:50;;;;;;;3.10;1.88;;;27.90;66.00;;;;;;5072617;28;20198;-49
2022/08/13 09:39:29;;;;;;;2.35;1.50;;;27.80;65.30;;;;;;5077667;28;20206;-47
2022/08/13 09:41:57;;;;;;;3.25;1.98;;;27.80;65.40;;;;;;5063137;28;20248;-45
2022/08/13 09:44:25;;;;;;;2.65;2.08;;;28.00;66.30;;;;;;5068802;28;20565;-48
2022/08/13 09:46:52;;;;;;;1.52;1.42;;;28.10;65.20;;;;;;5074185;28;20202;-47
2022/08/13 09:49:20;;;;;;;3.28;1.60;;;28.20;64.10;;;;;;5065786;28;20694;-46
2022/08/13 09:51:46;;;;;;;3.65;2.03;;;28.20;63.70;;;;;;5062533;28;20210;-48
2022/08/13 09:54:16;;;;;;;11.90;2.35;;;28.30;63.10;;;;;;5066133;28;20234;-47
2022/08/13 09:56:47;;;;;;;2.83;1.67;;;28.40;63.00;;;;;;5073759;28;20205;-49
2022/08/13 09:59:15;;;;;;;3.22;1.63;;;28.40;62.80;;;;;;5063165;28;20710;-46
2022/08/13 10:01:42;;;;;;;3.38;1.77;;;28.50;62.80;;;;;;5068963;28;20202;-47
2022/08/13 10:04:11;;;;;;;4.28;1.80;;;28.60;61.60;;;;;;5065461;28;20195;-46
2022/08/13 10:06:38;;;;;;;4.00;1.63;;;28.70;61.20;;;;;;5071486;28;20221;-52
2022/08/13 10:09:05;;;;;;;2.45;1.80;;;28.80;60.50;;;;;;5068056;28;20234;-47
2022/08/13 10:11:32;;;;;;;1.75;1.65;;;28.90;59.50;;;;;;5065660;28;20206;-46
2022/08/13 10:14:00;;;;;;;1.80;1.70;;;28.90;59.50;;;;;;5066998;28;21187;-45
2022/08/13 10:16:30;;;;;;;2.20;1.70;;;28.80;59.30;;;;;;5068855;28;20194;-46
2022/08/13 10:18:57;;;;;;;1.88;1.63;;;28.80;58.80;;;;;;5078429;28;20213;-45
2022/08/13 10:21:24;;;;;;;1.73;1.63;;;28.80;58.70;;;;;;5072945;28;20205;-46
2022/08/13 10:23:52;;;;;;;4.32;1.95;;;28.90;58.20;;;;;;5063097;28;20182;-45
2022/08/13 10:26:19;;;;;;;2.85;1.95;;;28.90;57.80;;;;;;5062739;28;20487;-45
2022/08/13 10:28:48;;;;;;;3.50;1.80;;;29.00;57.60;;;;;;5057599;28;20322;-51
2022/08/13 10:31:16;;;;;;;2.58;1.90;;;29.10;57.40;;;;;;5060563;28;20202;-44
2022/08/13 10:33:43;;;;;;;2.75;1.73;;;29.30;57.30;;;;;;5066461;28;20225;-45
2022/08/13 10:36:13;;;;;;;2.42;1.90;;;29.40;57.10;;;;;;5081085;28;20205;-45
2022/08/13 10:38:39;;;;;;;3.90;2.00;;;29.50;57.00;;;;;;5069348;28;20218;-46
2022/08/13 10:41:07;;;;;;;2.63;2.30;;;29.50;56.80;;;;;;5064687;28;20218;-46
2022/08/13 10:43:35;;;;;;;2.00;1.80;;;29.50;56.70;;;;;;5061146;28;20324;-48
2022/08/13 10:46:02;;;;;;;2.30;2.10;;;29.60;56.40;;;;;;5058646;28;20199;-48
2022/08/13 10:48:31;;;;;;;3.30;1.80;;;29.70;56.40;;;;;;5070412;28;20238;-45
2022/08/13 10:50:58;;;;;;;3.70;2.53;;;29.70;55.90;;;;;;5068961;28;20652;-45
2022/08/13 10:56:11;;;;;;;3.25;2.20;;;29.80;55.10;;;;;;5066483;28;20195;-48
2022/08/13 10:58:38;;;;;;;2.63;2.20;;;29.80;55.00;;;;;;5063391;28;20234;-47
2022/08/13 11:01:06;;;;;;;2.92;1.88;;;29.70;55.10;;;;;;5056039;28;20206;-46
2022/08/13 11:03:35;;;;;;;2.60;2.40;;;29.80;55.20;;;;;;5073637;28;20293;-50
2022/08/13 11:06:04;;;;;;;3.72;1.80;;;29.80;55.10;;;;;;5062395;28;20205;-45
2022/08/13 11:08:33;;;;;;;5.15;1.92;;;29.90;55.00;;;;;;5074991;28;20195;-47
2022/08/13 11:11:01;;;;;;;2.65;2.00;;;30.00;55.20;;;;;;5062972;28;20191;-46
2022/08/13 11:13:27;;;;;;;2.40;2.30;;;30.00;55.00;;;;;;5063975;28;20217;-46
2022/08/13 11:15:54;;;;;;;3.03;1.92;;;30.00;54.90;;;;;;5070966;28;20198;-45
2022/08/13 11:18:21;;;;;;;2.22;2.03;;;30.00;55.20;;;;;;5064498;28;20567;-45
2022/08/13 11:21:03;;;;;;;2.53;2.10;;;30.20;54.80;;;;;;5069613;28;20186;-45
2022/08/13 11:23:30;;;;;;;2.25;2.15;;;30.40;54.70;;;;;;5061355;28;20206;-45
2022/08/13 11:25:57;;;;;;;2.28;2.17;;;30.40;55.00;;;;;;5072798;28;20191;-50
2022/08/13 11:28:24;;;;;;;2.67;2.45;;;30.50;54.00;;;;;;5050888;28;20212;-49
2022/08/13 11:30:52;;;;;;;2.92;2.40;;;30.50;53.80;;;;;;5067681;28;20194;-46
2022/08/13 11:33:20;;;;;;;2.42;2.33;;;30.40;53.80;;;;;;5053155;28;20201;-49
2022/08/13 11:35:48;;;;;;;3.25;2.70;;;30.30;53.90;;;;;;5070262;28;20590;-46
2022/08/13 11:38:17;;;;;;;2.88;2.67;;;30.40;53.50;;;;;;5066723;28;20209;-48
2022/08/13 11:40:46;;;;;;;2.65;2.45;;;30.40;53.80;;;;;;5071215;28;20204;-45
2022/08/13 11:43:14;;;;;;;2.92;2.72;;;30.20;53.80;;;;;;5059444;28;20216;-46
2022/08/13 11:45:40;;;;;;;6.88;2.90;;;30.10;54.50;;;;;;5065630;28;20210;-45
2022/08/13 11:48:08;;;;;;;2.92;2.60;;;30.10;54.30;;;;;;5060787;28;20209;-49
2022/08/13 11:50:35;;;;;;;4.13;3.25;;;30.00;54.70;;;;;;5075874;28;20253;-48
2022/08/13 11:53:04;;;;;;;5.43;2.90;;;30.00;55.20;;;;;;5066761;28;20206;-49
2022/08/13 11:55:30;;;;;;;3.35;3.05;;;30.00;55.30;;;;;;5066239;28;20218;-49
2022/08/13 11:58:00;;;;;;;4.15;2.75;;;30.10;55.10;;;;;;5064858;28;20194;-46
2022/08/13 12:00:27;;;;;;;3.30;2.90;;;30.30;54.70;;;;;;5048100;28;20219;-46
2022/08/13 12:02:54;;;;;;;3.55;2.95;;;30.50;54.30;;;;;;5068813;28;20657;-46
2022/08/13 12:05:21;;;;;;;5.57;2.92;;;30.70;54.40;;;;;;5054804;28;20198;-46
2022/08/13 12:07:48;;;;;;;3.10;2.90;;;30.80;54.00;;;;;;5073401;28;20202;-47
2022/08/13 12:10:17;;;;;;;4.88;3.08;;;30.70;54.20;;;;;;5070845;28;20217;-45
2022/08/13 12:12:45;;;;;;;3.63;3.10;;;30.70;54.40;;;;;;5075923;28;20195;-46
2022/08/13 12:15:13;;;;;;;4.07;3.22;;;30.70;54.30;;;;;;5060159;28;20222;-47
2022/08/13 12:17:42;;;;;;;3.60;3.00;;;30.70;54.30;;;;;;5079813;28;20903;-46
2022/08/13 12:20:11;;;;;;;3.92;3.40;;;30.50;54.70;;;;;;5065528;28;20259;-49
2022/08/13 12:22:38;;;;;;;3.40;3.10;;;30.40;54.80;;;;;;5073375;28;20194;-45
2022/08/13 12:25:05;;;;;;;3.47;3.25;;;30.50;54.80;;;;;;5070966;28;20186;-48
2022/08/13 12:27:34;;;;;;;3.38;3.17;;;30.50;55.00;;;;;;5068276;28;20189;-45
2022/08/13 12:30:02;;;;;;;3.70;3.38;;;30.50;55.00;;;;;;5074592;28;20297;-48
2022/08/13 12:32:29;;;;;;;5.97;3.30;;;30.50;55.20;;;;;;5060916;28;20182;-47
2022/08/13 12:34:55;;;;;;;4.22;3.30;;;30.50;55.40;;;;;;5078989;28;20587;-45
2022/08/13 12:37:23;;;;;;;3.85;3.10;;;30.50;55.50;;;;;;5056732;28;20217;-46
2022/08/13 12:39:51;;;;;;;8.05;3.90;;;30.50;55.30;;;;;;5078945;28;20215;-45
2022/08/13 12:42:18;;;;;;;4.68;3.35;;;30.60;55.10;;;;;;5068983;28;20203;-46
2022/08/13 12:44:46;;;;;;;3.97;3.30;;;30.80;55.00;;;;;;5078059;28;20194;-49
2022/08/13 12:47:13;;;;;;;7.03;3.08;;;31.10;54.90;;;;;;5064682;28;20201;-47
2022/08/13 12:49:40;;;;;;;3.75;3.45;;;31.20;54.40;;;;;;5079574;28;20230;-48
2022/08/13 12:52:07;;;;;;;4.18;3.55;;;31.20;54.10;;;;;;5066019;28;20279;-49
2022/08/13 12:54:34;;;;;;;3.75;3.45;;;31.00;53.80;;;;;;5069263;28;20211;-47
2022/08/13 12:57:01;;;;;;;4.57;3.80;;;30.90;54.40;;;;;;5072316;28;20670;-46
2022/08/13 12:59:28;;;;;;;5.15;3.72;;;30.60;55.00;;;;;;5068918;28;20411;-44
2022/08/13 13:01:58;;;;;;;5.78;3.80;;;30.40;54.80;;;;;;5073697;28;20190;-48
2022/08/13 13:04:25;;;;;;;4.07;3.63;;;30.30;55.00;;;;;;5068848;28;20460;-45
2022/08/13 13:06:53;;;;;;;5.22;3.78;;;30.10;55.30;;;;;;5066235;28;20291;-43
2022/08/13 13:09:20;;;;;;;8.45;3.83;;;30.00;55.80;;;;;;5069268;28;20447;-43
2022/08/13 13:11:47;;;;;;;5.05;3.50;;;29.90;55.40;;;;;;5074447;28;20218;-48
2022/08/13 13:14:14;;;;;;;3.50;3.20;;;29.90;55.90;;;;;;5066037;28;20210;-49
2022/08/13 13:16:41;;;;;;;6.05;3.10;;;29.90;56.10;;;;;;5075556;28;20201;-44
2022/08/13 13:19:10;;;;;;;7.07;2.45;;;29.90;56.40;;;;;;5063055;28;20628;-46